sensor_id;sensor_type;location;lat;lon;timestamp;pressure;altitude;pressure_sealevel;temperature;humidity
12793;BME280;6460;42.684;23.260;2023-06-26T00:01:47;94392.75;;;20.01;100.00
12793;BME280;6460;42.684;23.260;2023-06-26T00:04:15;94389.97;;;19.85;100.00
12793;BME280;6460;42.684;23.260;2023-06-26T00:06:42;94394.25;;;20.06;100.00
12793;BME280;6460;42.684;23.260;2023-06-26T00:09:09;94394.44;;;19.95;100.00
12793;BME280;6460;42.684;23.260;2023-06-26T00:11:37;94394.50;;;19.92;100.00
12793;BME280;6460;42.684;23.260;2023-06-26T00:14:04;94401.50;;;19.93;100.00
12793;BME280;6460;42.684;23.260;2023-06-26T00:16:31;94407.53;;;19.84;100.00
12793;BME280;6460;42.684;23.260;2023-06-26T00:18:59;94398.28;;;19.78;100.00
12793;BME280;6460;42.684;23.260;2023-06-26T00:21:28;94403.03;;;19.74;100.00
12793;BME280;6460;42.684;23.260;2023-06-26T00:23:56;94398.28;;;19.78;100.00
12793;BME280;6460;42.684;23.260;2023-06-26T00:26:23;94394.88;;;19.51;100.00
12793;BME280;6460;42.684;23.260;2023-06-26T00:28:51;94394.47;;;19.72;100.00
12793;BME280;6460;42.684;23.260;2023-06-26T00:31:17;94389.38;;;19.54;100.00
12793;BME280;6460;42.684;23.260;2023-06-26T00:33:44;94392.13;;;19.74;100.00
12793;BME280;6460;42.684;23.260;2023-06-26T00:36:11;94388.47;;;19.38;100.00
12793;BME280;6460;42.684;23.260;2023-06-26T00:38:40;94395.44;;;19.42;100.00
12793;BME280;6460;42.684;23.260;2023-06-26T00:41:07;94402.22;;;19.54;100.00
12793;BME280;6460;42.684;23.260;2023-06-26T00:43:38;94389.25;;;19.62;100.00
12793;BME280;6460;42.684;23.260;2023-06-26T00:46:08;94383.69;;;19.45;100.00
12793;BME280;6460;42.684;23.260;2023-06-26T00:48:36;94388.59;;;19.54;100.00
12793;BME280;6460;42.684;23.260;2023-06-26T00:51:03;94391.09;;;19.45;100.00
12793;BME280;6460;42.684;23.260;2023-06-26T00:53:31;94386.00;;;19.47;100.00
12793;BME280;6460;42.684;23.260;2023-06-26T00:56:02;94382.78;;;19.52;100.00
12793;BME280;6460;42.684;23.260;2023-06-26T00:58:29;94376.97;;;19.50;100.00
12793;BME280;6460;42.684;23.260;2023-06-26T01:00:57;94380.22;;;19.65;100.00
12793;BME280;6460;42.684;23.260;2023-06-26T01:03:25;94377.88;;;19.43;100.00
12793;BME280;6460;42.684;23.260;2023-06-26T01:05:52;94380.25;;;19.41;100.00
12793;BME280;6460;42.684;23.260;2023-06-26T01:08:22;94376.72;;;19.64;100.00
12793;BME280;6460;42.684;23.260;2023-06-26T01:10:49;94365.22;;;19.53;100.00
12793;BME280;6460;42.684;23.260;2023-06-26T01:13:18;94360.56;;;19.53;100.00
12793;BME280;6460;42.684;23.260;2023-06-26T01:15:46;94362.50;;;19.53;100.00
12793;BME280;6460;42.684;23.260;2023-06-26T01:18:14;94361.34;;;19.54;100.00
12793;BME280;6460;42.684;23.260;2023-06-26T01:20:42;94359.72;;;19.57;100.00
12793;BME280;6460;42.684;23.260;2023-06-26T01:23:15;94350.72;;;19.60;100.00
12793;BME280;6460;42.684;23.260;2023-06-26T01:25:56;94346.94;;;19.73;100.00
12793;BME280;6460;42.684;23.260;2023-06-26T01:28:28;94343.19;;;19.67;100.00
12793;BME280;6460;42.684;23.260;2023-06-26T01:30:56;94340.09;;;19.65;100.00
12793;BME280;6460;42.684;23.260;2023-06-26T01:33:24;94343.81;;;19.55;100.00
12793;BME280;6460;42.684;23.260;2023-06-26T01:35:51;94338.81;;;19.50;100.00
12793;BME280;6460;42.684;23.260;2023-06-26T01:38:19;94350.09;;;19.52;100.00
12793;BME280;6460;42.684;23.260;2023-06-26T01:40:48;94340.56;;;19.37;100.00
12793;BME280;6460;42.684;23.260;2023-06-26T01:43:21;94346.63;;;19.25;100.00
12793;BME280;6460;42.684;23.260;2023-06-26T01:45:54;94349.25;;;19.32;100.00
12793;BME280;6460;42.684;23.260;2023-06-26T01:48:28;94335.81;;;19.44;100.00
12793;BME280;6460;42.684;23.260;2023-06-26T01:50:58;94352.94;;;19.45;100.00
12793;BME280;6460;42.684;23.260;2023-06-26T01:53:32;94342.72;;;19.26;100.00
12793;BME280;6460;42.684;23.260;2023-06-26T01:56:06;94341.63;;;19.23;100.00
12793;BME280;6460;42.684;23.260;2023-06-26T01:58:35;94340.00;;;19.26;100.00
12793;BME280;6460;42.684;23.260;2023-06-26T02:01:05;94340.34;;;19.28;100.00
12793;BME280;6460;42.684;23.260;2023-06-26T02:03:32;94345.28;;;19.36;100.00
12793;BME280;6460;42.684;23.260;2023-06-26T02:06:00;94339.28;;;19.22;100.00
12793;BME280;6460;42.684;23.260;2023-06-26T02:08:27;94337.00;;;19.20;100.00
12793;BME280;6460;42.684;23.260;2023-06-26T02:10:54;94337.69;;;19.24;100.00
12793;BME280;6460;42.684;23.260;2023-06-26T02:13:21;94344.19;;;19.11;100.00
12793;BME280;6460;42.684;23.260;2023-06-26T02:15:49;94335.06;;;19.21;100.00
12793;BME280;6460;42.684;23.260;2023-06-26T02:18:17;94326.78;;;19.24;100.00
12793;BME280;6460;42.684;23.260;2023-06-26T02:20:46;94335.56;;;19.12;100.00
12793;BME280;6460;42.684;23.260;2023-06-26T02:23:14;94321.78;;;19.23;100.00
12793;BME280;6460;42.684;23.260;2023-06-26T02:25:41;94339.56;;;19.08;100.00
12793;BME280;6460;42.684;23.260;2023-06-26T02:28:08;94336.28;;;19.16;100.00
12793;BME280;6460;42.684;23.260;2023-06-26T02:30:35;94335.50;;;19.16;100.00
12793;BME280;6460;42.684;23.260;2023-06-26T02:33:02;94328.72;;;19.04;100.00
12793;BME280;6460;42.684;23.260;2023-06-26T02:35:32;94327.81;;;19.11;100.00
12793;BME280;6460;42.684;23.260;2023-06-26T02:37:59;94334.84;;;19.08;100.00
12793;BME280;6460;42.684;23.260;2023-06-26T02:40:26;94341.22;;;19.01;100.00
12793;BME280;6460;42.684;23.260;2023-06-26T02:42:53;94338.41;;;19.05;100.00
12793;BME280;6460;42.684;23.260;2023-06-26T02:45:20;94338.06;;;19.03;100.00
12793;BME280;6460;42.684;23.260;2023-06-26T02:47:47;94339.78;;;18.93;100.00
12793;BME280;6460;42.684;23.260;2023-06-26T02:50:14;94342.72;;;19.02;100.00
12793;BME280;6460;42.684;23.260;2023-06-26T02:52:43;94343.44;;;19.07;100.00
12793;BME280;6460;42.684;23.260;2023-06-26T02:55:10;94341.06;;;19.09;100.00
12793;BME280;6460;42.684;23.260;2023-06-26T02:57:37;94338.84;;;19.03;100.00
12793;BME280;6460;42.684;23.260;2023-06-26T03:00:05;94342.59;;;18.86;100.00
12793;BME280;6460;42.684;23.260;2023-06-26T03:02:33;94338.56;;;18.71;100.00
12793;BME280;6460;42.684;23.260;2023-06-26T03:05:01;94342.59;;;18.86;100.00
12793;BME280;6460;42.684;23.260;2023-06-26T03:07:29;94339.78;;;18.93;100.00
12793;BME280;6460;42.684;23.260;2023-06-26T03:09:58;94340.25;;;18.88;100.00
12793;BME280;6460;42.684;23.260;2023-06-26T03:12:25;94347.22;;;18.89;100.00
12793;BME280;6460;42.684;23.260;2023-06-26T03:14:53;94349.84;;;18.96;100.00
12793;BME280;6460;42.684;23.260;2023-06-26T03:17:20;94340.50;;;18.97;100.00
12793;BME280;6460;42.684;23.260;2023-06-26T03:19:47;94340.13;;;18.95;100.00
12793;BME280;6460;42.684;23.260;2023-06-26T03:22:14;94349.00;;;18.99;100.00
12793;BME280;6460;42.684;23.260;2023-06-26T03:24:41;94347.47;;;18.98;100.00
12793;BME280;6460;42.684;23.260;2023-06-26T03:27:10;94347.41;;;19.02;100.00
12793;BME280;6460;42.684;23.260;2023-06-26T03:29:37;94337.22;;;19.06;100.00
12793;BME280;6460;42.684;23.260;2023-06-26T03:32:04;94342.09;;;18.95;100.00
12793;BME280;6460;42.684;23.260;2023-06-26T03:34:32;94351.78;;;18.96;100.00
12793;BME280;6460;42.684;23.260;2023-06-26T03:36:59;94363.31;;;18.80;100.00
12793;BME280;6460;42.684;23.260;2023-06-26T03:39:27;94358.59;;;18.84;100.00
12793;BME280;6460;42.684;23.260;2023-06-26T03:41:54;94369.75;;;18.67;100.00
12793;BME280;6460;42.684;23.260;2023-06-26T03:44:27;94356.13;;;18.67;100.00
12793;BME280;6460;42.684;23.260;2023-06-26T03:46:54;94347.66;;;18.88;100.00
12793;BME280;6460;42.684;23.260;2023-06-26T03:49:21;94354.31;;;18.60;100.00
12793;BME280;6460;42.684;23.260;2023-06-26T03:51:49;94358.72;;;19.00;100.00
12793;BME280;6460;42.684;23.260;2023-06-26T03:54:16;94345.72;;;18.88;100.00
12793;BME280;6460;42.684;23.260;2023-06-26T03:56:43;94352.53;;;18.73;100.00
12793;BME280;6460;42.684;23.260;2023-06-26T03:59:10;94347.91;;;18.97;100.00
12793;BME280;6460;42.684;23.260;2023-06-26T04:01:39;94344.25;;;18.80;100.00
12793;BME280;6460;42.684;23.260;2023-06-26T04:04:06;94345.13;;;19.00;100.00
12793;BME280;6460;42.684;23.260;2023-06-26T04:06:34;94343.38;;;18.87;100.00
12793;BME280;6460;42.684;23.260;2023-06-26T04:09:04;94342.78;;;18.99;100.00
12793;BME280;6460;42.684;23.260;2023-06-26T04:11:31;94353.03;;;18.91;100.00
12793;BME280;6460;42.684;23.260;2023-06-26T04:14:01;94344.56;;;18.86;100.00
12793;BME280;6460;42.684;23.260;2023-06-26T04:16:32;94355.75;;;18.68;100.00
12793;BME280;6460;42.684;23.260;2023-06-26T04:19:00;94344.63;;;18.82;100.00
12793;BME280;6460;42.684;23.260;2023-06-26T04:21:28;94344.69;;;18.79;100.00
12793;BME280;6460;42.684;23.260;2023-06-26T04:23:55;94353.41;;;18.93;100.00
12793;BME280;6460;42.684;23.260;2023-06-26T04:26:22;94350.25;;;19.18;100.00
12793;BME280;6460;42.684;23.260;2023-06-26T04:28:49;94353.34;;;19.20;100.00
12793;BME280;6460;42.684;23.260;2023-06-26T04:31:16;94349.56;;;19.14;100.00
12793;BME280;6460;42.684;23.260;2023-06-26T04:33:43;94360.63;;;19.50;100.00
12793;BME280;6460;42.684;23.260;2023-06-26T04:36:12;94358.31;;;19.48;100.00
12793;BME280;6460;42.684;23.260;2023-06-26T04:38:43;94351.91;;;19.59;100.00
12793;BME280;6460;42.684;23.260;2023-06-26T04:41:10;94357.03;;;19.76;100.00
12793;BME280;6460;42.684;23.260;2023-06-26T04:43:38;94354.88;;;19.87;100.00
12793;BME280;6460;42.684;23.260;2023-06-26T04:46:05;94352.13;;;19.87;100.00
12793;BME280;6460;42.684;23.260;2023-06-26T04:48:32;94365.28;;;19.92;100.00
12793;BME280;6460;42.684;23.260;2023-06-26T04:50:59;94355.47;;;20.15;100.00
12793;BME280;6460;42.684;23.260;2023-06-26T04:53:28;94356.50;;;20.21;100.00
12793;BME280;6460;42.684;23.260;2023-06-26T04:55:55;94357.22;;;20.25;100.00
12793;BME280;6460;42.684;23.260;2023-06-26T04:58:22;94348.00;;;20.38;100.00
12793;BME280;6460;42.684;23.260;2023-06-26T05:00:52;94355.75;;;20.40;100.00
12793;BME280;6460;42.684;23.260;2023-06-26T05:03:20;94352.25;;;20.20;100.00
12793;BME280;6460;42.684;23.260;2023-06-26T05:05:47;94355.53;;;20.11;100.00
12793;BME280;6460;42.684;23.260;2023-06-26T05:08:17;94357.28;;;20.21;100.00
12793;BME280;6460;42.684;23.260;2023-06-26T05:10:45;94359.81;;;20.32;100.00
12793;BME280;6460;42.684;23.260;2023-06-26T05:13:13;94359.81;;;20.32;100.00
12793;BME280;6460;42.684;23.260;2023-06-26T05:15:43;94371.91;;;20.50;100.00
12793;BME280;6460;42.684;23.260;2023-06-26T05:18:12;94361.25;;;20.72;100.00
12793;BME280;6460;42.684;23.260;2023-06-26T05:20:40;94371.00;;;20.18;100.00
12793;BME280;6460;42.684;23.260;2023-06-26T05:23:07;94374.72;;;20.27;100.00
12793;BME280;6460;42.684;23.260;2023-06-26T05:25:35;94368.00;;;20.32;100.00
12793;BME280;6460;42.684;23.260;2023-06-26T05:28:04;94372.06;;;20.43;100.00
12793;BME280;6460;42.684;23.260;2023-06-26T05:30:34;94368.13;;;20.44;100.00
12793;BME280;6460;42.684;23.260;2023-06-26T05:33:02;94382.03;;;20.50;100.00
12793;BME280;6460;42.684;23.260;2023-06-26T05:35:31;94376.88;;;20.36;100.00
12793;BME280;6460;42.684;23.260;2023-06-26T05:37:59;94378.78;;;20.19;100.00
12793;BME280;6460;42.684;23.260;2023-06-26T05:40:27;94379.41;;;20.27;100.00
12793;BME280;6460;42.684;23.260;2023-06-26T05:42:55;94382.03;;;20.50;100.00
12793;BME280;6460;42.684;23.260;2023-06-26T05:45:24;94377.66;;;20.36;100.00
12793;BME280;6460;42.684;23.260;2023-06-26T05:47:51;94380.88;;;20.51;100.00
12793;BME280;6460;42.684;23.260;2023-06-26T05:50:18;94380.97;;;20.64;100.00
12793;BME280;6460;42.684;23.260;2023-06-26T05:52:46;94376.97;;;20.68;100.00
12793;BME280;6460;42.684;23.260;2023-06-26T05:55:14;94385.59;;;20.67;100.00
12793;BME280;6460;42.684;23.260;2023-06-26T05:57:42;94392.38;;;20.58;100.00
12793;BME280;6460;42.684;23.260;2023-06-26T06:00:09;94387.34;;;20.57;100.00
12793;BME280;6460;42.684;23.260;2023-06-26T06:02:38;94380.97;;;20.64;100.00
12793;BME280;6460;42.684;23.260;2023-06-26T06:05:07;94395.84;;;20.79;100.00
12793;BME280;6460;42.684;23.260;2023-06-26T06:07:35;94390.78;;;20.77;100.00
12793;BME280;6460;42.684;23.260;2023-06-26T06:10:03;94385.53;;;20.86;100.00
12793;BME280;6460;42.684;23.260;2023-06-26T06:12:30;94386.22;;;21.06;100.00
12793;BME280;6460;42.684;23.260;2023-06-26T06:14:57;94385.72;;;20.95;100.00
12793;BME280;6460;42.684;23.260;2023-06-26T06:17:24;94387.44;;;21.05;100.00
12793;BME280;6460;42.684;23.260;2023-06-26T06:19:53;94383.78;;;21.12;100.00
12793;BME280;6460;42.684;23.260;2023-06-26T06:22:20;94383.94;;;21.21;100.00
12793;BME280;6460;42.684;23.260;2023-06-26T06:24:48;94381.38;;;21.30;100.00
12793;BME280;6460;42.684;23.260;2023-06-26T06:27:16;94381.06;;;21.12;100.00
12793;BME280;6460;42.684;23.260;2023-06-26T06:29:43;94378.22;;;20.99;100.00
12793;BME280;6460;42.684;23.260;2023-06-26T06:32:10;94383.31;;;20.97;100.00
12793;BME280;6460;42.684;23.260;2023-06-26T06:34:37;94381.03;;;20.96;100.00
12793;BME280;6460;42.684;23.260;2023-06-26T06:37:06;94383.31;;;20.97;100.00
12793;BME280;6460;42.684;23.260;2023-06-26T06:39:33;94377.78;;;21.33;100.00
12793;BME280;6460;42.684;23.260;2023-06-26T06:42:00;94372.19;;;21.69;100.00
12793;BME280;6460;42.684;23.260;2023-06-26T06:44:27;94373.22;;;21.59;100.00
12793;BME280;6460;42.684;23.260;2023-06-26T06:46:55;94371.09;;;21.95;100.00
12793;BME280;6460;42.684;23.260;2023-06-26T06:49:23;94379.47;;;22.04;100.00
12793;BME280;6460;42.684;23.260;2023-06-26T06:51:50;94371.22;;;22.33;100.00
12793;BME280;6460;42.684;23.260;2023-06-26T06:54:18;94362.09;;;22.24;97.17
12793;BME280;6460;42.684;23.260;2023-06-26T06:56:46;94383.53;;;22.12;95.14
12793;BME280;6460;42.684;23.260;2023-06-26T06:59:13;94370.31;;;22.24;95.69
12793;BME280;6460;42.684;23.260;2023-06-26T07:01:40;94369.81;;;22.54;91.12
12793;BME280;6460;42.684;23.260;2023-06-26T07:04:07;94366.69;;;22.14;93.53
12793;BME280;6460;42.684;23.260;2023-06-26T07:06:34;94363.72;;;22.75;91.61
12793;BME280;6460;42.684;23.260;2023-06-26T07:09:01;94364.34;;;23.17;89.93
12793;BME280;6460;42.684;23.260;2023-06-26T07:11:30;94362.13;;;23.37;88.29
12793;BME280;6460;42.684;23.260;2023-06-26T07:13:57;94362.50;;;23.01;88.76
12793;BME280;6460;42.684;23.260;2023-06-26T07:16:24;94359.78;;;22.89;87.40
12793;BME280;6460;42.684;23.260;2023-06-26T07:18:51;94364.13;;;22.61;89.45
12793;BME280;6460;42.684;23.260;2023-06-26T07:21:18;94368.66;;;22.93;88.67
12793;BME280;6460;42.684;23.260;2023-06-26T07:23:45;94370.84;;;22.85;89.71
12793;BME280;6460;42.684;23.260;2023-06-26T07:26:14;94359.66;;;23.05;85.73
12793;BME280;6460;42.684;23.260;2023-06-26T07:28:45;94360.75;;;22.95;85.14
12793;BME280;6460;42.684;23.260;2023-06-26T07:31:14;94355.66;;;23.44;83.75
12793;BME280;6460;42.684;23.260;2023-06-26T07:33:42;94354.00;;;23.81;83.09
12793;BME280;6460;42.684;23.260;2023-06-26T07:36:09;94362.44;;;23.39;84.75
12793;BME280;6460;42.684;23.260;2023-06-26T07:38:36;94364.13;;;23.24;84.28
12793;BME280;6460;42.684;23.260;2023-06-26T07:41:03;94365.31;;;22.47;84.88
12793;BME280;6460;42.684;23.260;2023-06-26T07:43:30;94361.84;;;22.72;85.34
12793;BME280;6460;42.684;23.260;2023-06-26T07:45:59;94358.53;;;23.28;85.71
12793;BME280;6460;42.684;23.260;2023-06-26T07:48:26;94361.38;;;23.71;81.40
12793;BME280;6460;42.684;23.260;2023-06-26T07:50:53;94375.03;;;23.62;80.50
12793;BME280;6460;42.684;23.260;2023-06-26T07:53:20;94364.34;;;23.04;82.20
12793;BME280;6460;42.684;23.260;2023-06-26T07:55:47;94358.63;;;24.05;80.61
12793;BME280;6460;42.684;23.260;2023-06-26T07:58:14;94359.78;;;24.17;76.99
12793;BME280;6460;42.684;23.260;2023-06-26T08:00:41;94361.81;;;24.26;77.45
12793;BME280;6460;42.684;23.260;2023-06-26T08:03:10;94367.94;;;24.08;76.92
12793;BME280;6460;42.684;23.260;2023-06-26T08:05:36;94368.97;;;24.01;78.47
12793;BME280;6460;42.684;23.260;2023-06-26T08:08:04;94364.00;;;24.31;75.28
12793;BME280;6460;42.684;23.260;2023-06-26T08:10:32;94357.41;;;24.81;74.20
12793;BME280;6460;42.684;23.260;2023-06-26T08:12:59;94354.91;;;24.73;73.94
12793;BME280;6460;42.684;23.260;2023-06-26T08:15:26;94377.28;;;24.32;72.44
12793;BME280;6460;42.684;23.260;2023-06-26T08:17:53;94354.44;;;24.66;73.43
12793;BME280;6460;42.684;23.260;2023-06-26T08:20:22;94352.59;;;24.63;71.98
12793;BME280;6460;42.684;23.260;2023-06-26T08:22:49;94358.56;;;24.40;74.35
12793;BME280;6460;42.684;23.260;2023-06-26T08:25:18;94365.53;;;24.32;72.34
12793;BME280;6460;42.684;23.260;2023-06-26T08:27:45;94366.56;;;24.25;72.58
12793;BME280;6460;42.684;23.260;2023-06-26T08:30:12;94365.81;;;24.25;73.08
12793;BME280;6460;42.684;23.260;2023-06-26T08:32:39;94358.88;;;24.42;72.59
12793;BME280;6460;42.684;23.260;2023-06-26T08:35:07;94350.28;;;24.61;68.81
12793;BME280;6460;42.684;23.260;2023-06-26T08:37:37;94363.28;;;24.70;69.97
12793;BME280;6460;42.684;23.260;2023-06-26T08:40:05;94359.78;;;25.00;67.85
12793;BME280;6460;42.684;23.260;2023-06-26T08:42:34;94357.97;;;25.06;67.96
12793;BME280;6460;42.684;23.260;2023-06-26T08:45:01;94350.09;;;25.26;65.69
12793;BME280;6460;42.684;23.260;2023-06-26T08:47:29;94359.44;;;25.47;66.70
12793;BME280;6460;42.684;23.260;2023-06-26T08:50:02;94363.22;;;25.13;68.08
12793;BME280;6460;42.684;23.260;2023-06-26T08:52:35;94366.25;;;25.15;68.11
12793;BME280;6460;42.684;23.260;2023-06-26T08:55:09;94358.66;;;25.28;65.66
12793;BME280;6460;42.684;23.260;2023-06-26T08:57:36;94347.91;;;24.72;69.09
12793;BME280;6460;42.684;23.260;2023-06-26T09:00:05;94356.69;;;24.89;67.35
12793;BME280;6460;42.684;23.260;2023-06-26T09:02:34;94366.19;;;24.88;66.33
12793;BME280;6460;42.684;23.260;2023-06-26T09:05:02;94351.97;;;25.39;64.64
12793;BME280;6460;42.684;23.260;2023-06-26T09:07:30;94356.03;;;25.16;67.04
12793;BME280;6460;42.684;23.260;2023-06-26T09:09:59;94351.38;;;25.53;65.04
12793;BME280;6460;42.684;23.260;2023-06-26T09:12:28;94346.06;;;25.86;62.15
12793;BME280;6460;42.684;23.260;2023-06-26T09:14:56;94350.78;;;25.85;62.13
12793;BME280;6460;42.684;23.260;2023-06-26T09:17:24;94355.91;;;25.38;64.33
12793;BME280;6460;42.684;23.260;2023-06-26T09:19:52;94350.88;;;25.36;65.08
12793;BME280;6460;42.684;23.260;2023-06-26T09:22:19;94357.47;;;24.90;66.86
12793;BME280;6460;42.684;23.260;2023-06-26T09:24:47;94350.94;;;25.05;67.31
12793;BME280;6460;42.684;23.260;2023-06-26T09:27:14;94353.31;;;25.43;64.97
12793;BME280;6460;42.684;23.260;2023-06-26T09:29:45;94351.47;;;25.31;66.53
12793;BME280;6460;42.684;23.260;2023-06-26T09:32:13;94352.44;;;24.97;64.10
12793;BME280;6460;42.684;23.260;2023-06-26T09:34:42;94344.84;;;24.80;63.55
12793;BME280;6460;42.684;23.260;2023-06-26T09:37:12;94343.75;;;24.68;64.45
12793;BME280;6460;42.684;23.260;2023-06-26T09:39:40;94353.47;;;24.82;64.80
12793;BME280;6460;42.684;23.260;2023-06-26T09:42:07;94346.88;;;25.19;62.12
12793;BME280;6460;42.684;23.260;2023-06-26T09:44:35;94345.19;;;25.31;61.27
12793;BME280;6460;42.684;23.260;2023-06-26T09:47:03;94346.69;;;25.13;58.53
12793;BME280;6460;42.684;23.260;2023-06-26T09:49:31;94341.00;;;24.99;59.23
12793;BME280;6460;42.684;23.260;2023-06-26T09:52:00;94343.91;;;24.95;60.09
12793;BME280;6460;42.684;23.260;2023-06-26T09:54:27;94359.13;;;24.87;60.43
12793;BME280;6460;42.684;23.260;2023-06-26T09:56:55;94343.91;;;24.95;60.73
12793;BME280;6460;42.684;23.260;2023-06-26T09:59:23;94351.66;;;25.46;57.99
12793;BME280;6460;42.684;23.260;2023-06-26T10:01:58;94351.13;;;25.78;56.71
12793;BME280;6460;42.684;23.260;2023-06-26T10:04:27;94346.41;;;25.20;58.35
12793;BME280;6460;42.684;23.260;2023-06-26T10:06:56;94346.19;;;25.55;55.24
12793;BME280;6460;42.684;23.260;2023-06-26T10:09:24;94338.25;;;25.66;56.27
12793;BME280;6460;42.684;23.260;2023-06-26T10:11:55;94328.16;;;25.99;56.97
12793;BME280;6460;42.684;23.260;2023-06-26T10:14:26;94332.16;;;25.80;55.66
12793;BME280;6460;42.684;23.260;2023-06-26T10:16:57;94337.66;;;25.62;57.87
12793;BME280;6460;42.684;23.260;2023-06-26T10:19:28;94337.50;;;25.93;54.46
12793;BME280;6460;42.684;23.260;2023-06-26T10:21:58;94334.56;;;25.60;55.39
12793;BME280;6460;42.684;23.260;2023-06-26T10:24:31;94336.25;;;25.75;54.35
12793;BME280;6460;42.684;23.260;2023-06-26T10:27:01;94329.38;;;26.25;51.76
12793;BME280;6460;42.684;23.260;2023-06-26T10:29:30;94338.56;;;26.32;52.97
12793;BME280;6460;42.684;23.260;2023-06-26T10:32:00;94331.50;;;26.30;53.52
12793;BME280;6460;42.684;23.260;2023-06-26T10:34:31;94336.84;;;26.34;50.57
12793;BME280;6460;42.684;23.260;2023-06-26T10:37:01;94332.44;;;26.18;50.99
12793;BME280;6460;42.684;23.260;2023-06-26T10:39:46;94332.28;;;26.31;49.38
12793;BME280;6460;42.684;23.260;2023-06-26T10:42:13;94355.69;;;25.99;49.52
12793;BME280;6460;42.684;23.260;2023-06-26T10:44:42;94325.53;;;25.59;51.20
12793;BME280;6460;42.684;23.260;2023-06-26T10:47:10;94338.84;;;25.52;54.36
12793;BME280;6460;42.684;23.260;2023-06-26T10:49:46;94324.66;;;25.71;54.04
12793;BME280;6460;42.684;23.260;2023-06-26T10:52:13;94330.28;;;25.50;56.23
12793;BME280;6460;42.684;23.260;2023-06-26T10:54:40;94341.63;;;25.61;55.04
12793;BME280;6460;42.684;23.260;2023-06-26T10:57:08;94315.31;;;25.51;58.19
12793;BME280;6460;42.684;23.260;2023-06-26T10:59:39;94320.06;;;25.77;57.84
12793;BME280;6460;42.684;23.260;2023-06-26T11:02:06;94326.91;;;25.37;55.66
12793;BME280;6460;42.684;23.260;2023-06-26T11:04:45;94324.91;;;25.46;55.58
12793;BME280;6460;42.684;23.260;2023-06-26T11:07:17;94334.56;;;25.60;54.91
12793;BME280;6460;42.684;23.260;2023-06-26T11:09:58;94324.97;;;25.64;54.33
12793;BME280;6460;42.684;23.260;2023-06-26T11:12:36;94310.28;;;25.58;55.37
12793;BME280;6460;42.684;23.260;2023-06-26T11:15:05;94313.66;;;25.71;53.12
12793;BME280;6460;42.684;23.260;2023-06-26T11:17:34;94310.59;;;25.88;52.79
12793;BME280;6460;42.684;23.260;2023-06-26T11:20:05;94319.31;;;25.59;53.73
12793;BME280;6460;42.684;23.260;2023-06-26T11:22:35;94320.22;;;25.65;53.83
12793;BME280;6460;42.684;23.260;2023-06-26T11:25:03;94316.06;;;25.60;52.87
12793;BME280;6460;42.684;23.260;2023-06-26T11:27:32;94326.78;;;25.76;52.65
12793;BME280;6460;42.684;23.260;2023-06-26T11:29:59;94307.53;;;25.67;53.67
12793;BME280;6460;42.684;23.260;2023-06-26T11:32:26;94310.91;;;25.71;52.13
12793;BME280;6460;42.684;23.260;2023-06-26T11:34:54;94306.16;;;25.81;52.22
12793;BME280;6460;42.684;23.260;2023-06-26T11:37:23;94318.06;;;25.96;52.66
12793;BME280;6460;42.684;23.260;2023-06-26T11:39:51;94305.22;;;25.84;52.95
12793;BME280;6460;42.684;23.260;2023-06-26T11:42:18;94308.00;;;25.75;52.92
12793;BME280;6460;42.684;23.260;2023-06-26T11:44:46;94315.47;;;25.84;52.96
12793;BME280;6460;42.684;23.260;2023-06-26T11:47:14;94309.16;;;25.38;55.62
12793;BME280;6460;42.684;23.260;2023-06-26T11:49:42;94315.91;;;25.91;53.84
12793;BME280;6460;42.684;23.260;2023-06-26T11:52:25;94302.16;;;26.18;52.77
12793;BME280;6460;42.684;23.260;2023-06-26T11:54:52;94298.16;;;26.70;52.48
12793;BME280;6460;42.684;23.260;2023-06-26T11:57:23;94311.81;;;26.65;49.22
12793;BME280;6460;42.684;23.260;2023-06-26T11:59:50;94306.56;;;26.76;48.85
12793;BME280;6460;42.684;23.260;2023-06-26T12:02:18;94302.63;;;27.01;48.93
12793;BME280;6460;42.684;23.260;2023-06-26T12:04:45;94286.91;;;27.16;47.58
12793;BME280;6460;42.684;23.260;2023-06-26T12:07:13;94301.66;;;27.37;46.64
12793;BME280;6460;42.684;23.260;2023-06-26T12:09:43;94284.69;;;27.29;48.63
12793;BME280;6460;42.684;23.260;2023-06-26T12:12:11;94290.63;;;27.37;46.16
12793;BME280;6460;42.684;23.260;2023-06-26T12:14:39;94299.72;;;27.04;45.63
12793;BME280;6460;42.684;23.260;2023-06-26T12:17:09;94293.69;;;27.15;45.81
12793;BME280;6460;42.684;23.260;2023-06-26T12:19:37;94294.47;;;27.15;46.80
12793;BME280;6460;42.684;23.260;2023-06-26T12:22:06;94300.69;;;26.92;48.11
12793;BME280;6460;42.684;23.260;2023-06-26T12:24:36;94294.69;;;27.26;46.80
12793;BME280;6460;42.684;23.260;2023-06-26T12:27:08;94297.25;;;27.06;47.90
12793;BME280;6460;42.684;23.260;2023-06-26T12:29:37;94297.25;;;27.06;47.43
12793;BME280;6460;42.684;23.260;2023-06-26T12:32:08;94294.47;;;27.15;47.62
12793;BME280;6460;42.684;23.260;2023-06-26T12:34:36;94302.25;;;26.84;49.47
12793;BME280;6460;42.684;23.260;2023-06-26T12:37:05;94296.31;;;27.09;47.92
12793;BME280;6460;42.684;23.260;2023-06-26T12:39:45;94302.59;;;26.77;50.15
12793;BME280;6460;42.684;23.260;2023-06-26T12:42:15;94306.72;;;26.21;51.42
12793;BME280;6460;42.684;23.260;2023-06-26T12:44:43;94299.31;;;26.46;51.61
12793;BME280;6460;42.684;23.260;2023-06-26T12:47:10;94291.19;;;26.42;53.19
12793;BME280;6460;42.684;23.260;2023-06-26T12:49:39;94303.56;;;26.56;52.97
12793;BME280;6460;42.684;23.260;2023-06-26T12:52:09;94296.38;;;26.49;52.54
12793;BME280;6460;42.684;23.260;2023-06-26T12:54:37;94303.03;;;26.34;54.78
12793;BME280;6460;42.684;23.260;2023-06-26T12:57:05;94300.59;;;26.36;56.11
12793;BME280;6460;42.684;23.260;2023-06-26T12:59:36;94288.97;;;26.32;55.53
12793;BME280;6460;42.684;23.260;2023-06-26T13:02:05;94284.47;;;26.43;55.57